sensor_id;sensor_type;location;lat;lon;timestamp;noise_LAeq;noise_LA_min;noise_LA_max;noise_LA01;noise_LA95
69619;Laerm;57653;51.434;5.984;2023-12-28T00:00:05;34.57;32.15;37.08;;
69619;Laerm;57653;51.434;5.984;2023-12-28T00:00:16;36.43;32.97;42.32;;
69619;Laerm;57653;51.434;5.984;2023-12-28T00:00:26;34.57;32.47;40.17;;
69619;Laerm;57653;51.434;5.984;2023-12-28T00:00:36;33.89;31.94;40.43;;
69619;Laerm;57653;51.434;5.984;2023-12-28T00:00:47;33.35;31.52;36.36;;
69619;Laerm;57653;51.434;5.984;2023-12-28T00:00:58;33.87;31.16;44.50;;
69619;Laerm;57653;51.434;5.984;2023-12-28T00:01:08;33.74;31.75;40.01;;
69619;Laerm;57653;51.434;5.984;2023-12-28T00:01:18;35.57;33.00;48.61;;
69619;Laerm;57653;51.434;5.984;2023-12-28T00:01:28;38.80;35.02;52.18;;
69619;Laerm;57653;51.434;5.984;2023-12-28T00:01:39;42.36;34.45;60.91;;
69619;Laerm;57653;51.434;5.984;2023-12-28T00:01:49;39.21;34.04;55.33;;
69619;Laerm;57653;51.434;5.984;2023-12-28T00:02:00;36.17;33.49;47.18;;
69619;Laerm;57653;51.434;5.984;2023-12-28T00:02:11;37.82;33.64;54.54;;
69619;Laerm;57653;51.434;5.984;2023-12-28T00:02:21;41.02;33.33;57.06;;
69619;Laerm;57653;51.434;5.984;2023-12-28T00:02:31;41.05;33.90;60.55;;
69619;Laerm;57653;51.434;5.984;2023-12-28T00:02:41;39.67;33.96;57.40;;
69619;Laerm;57653;51.434;5.984;2023-12-28T00:02:52;42.03;34.34;56.80;;
69619;Laerm;57653;51.434;5.984;2023-12-28T00:03:02;35.61;32.25;48.50;;
69619;Laerm;57653;51.434;5.984;2023-12-28T00:03:12;34.57;32.46;49.49;;
69619;Laerm;57653;51.434;5.984;2023-12-28T00:03:23;34.27;32.06;41.81;;
69619;Laerm;57653;51.434;5.984;2023-12-28T00:03:33;34.48;32.37;40.74;;
69619;Laerm;57653;51.434;5.984;2023-12-28T00:03:43;34.32;32.06;47.19;;
69619;Laerm;57653;51.434;5.984;2023-12-28T00:03:53;36.57;32.61;52.15;;
69619;Laerm;57653;51.434;5.984;2023-12-28T00:04:04;35.87;33.24;39.03;;
69619;Laerm;57653;51.434;5.984;2023-12-28T00:04:14;36.03;32.95;40.01;;
69619;Laerm;57653;51.434;5.984;2023-12-28T00:04:24;35.65;33.62;43.59;;
69619;Laerm;57653;51.434;5.984;2023-12-28T00:04:34;38.36;34.74;45.16;;
69619;Laerm;57653;51.434;5.984;2023-12-28T00:04:44;39.24;34.32;54.93;;
69619;Laerm;57653;51.434;5.984;2023-12-28T00:04:55;37.89;34.07;42.25;;
69619;Laerm;57653;51.434;5.984;2023-12-28T00:05:05;39.65;37.00;44.61;;
69619;Laerm;57653;51.434;5.984;2023-12-28T00:05:15;37.37;34.97;45.51;;
69619;Laerm;57653;51.434;5.984;2023-12-28T00:05:26;37.91;33.89;55.24;;
69619;Laerm;57653;51.434;5.984;2023-12-28T00:05:36;37.61;34.15;51.16;;
69619;Laerm;57653;51.434;5.984;2023-12-28T00:05:46;37.01;33.98;42.62;;
69619;Laerm;57653;51.434;5.984;2023-12-28T00:05:56;36.44;34.70;38.89;;
69619;Laerm;57653;51.434;5.984;2023-12-28T00:06:06;38.68;34.17;52.51;;
69619;Laerm;57653;51.434;5.984;2023-12-28T00:06:17;37.41;35.25;48.16;;
69619;Laerm;57653;51.434;5.984;2023-12-28T00:06:27;36.73;33.99;41.27;;
69619;Laerm;57653;51.434;5.984;2023-12-28T00:06:37;35.60;33.77;43.80;;
69619;Laerm;57653;51.434;5.984;2023-12-28T00:06:47;34.83;32.80;46.45;;
69619;Laerm;57653;51.434;5.984;2023-12-28T00:06:58;34.30;32.39;36.38;;
69619;Laerm;57653;51.434;5.984;2023-12-28T00:07:08;33.71;32.15;42.07;;
69619;Laerm;57653;51.434;5.984;2023-12-28T00:07:18;36.83;31.15;54.28;;
69619;Laerm;57653;51.434;5.984;2023-12-28T00:07:29;33.27;31.62;40.05;;
69619;Laerm;57653;51.434;5.984;2023-12-28T00:07:39;33.60;31.29;40.29;;
69619;Laerm;57653;51.434;5.984;2023-12-28T00:07:49;35.02;32.81;48.32;;
69619;Laerm;57653;51.434;5.984;2023-12-28T00:08:06;33.57;31.81;39.97;;
69619;Laerm;57653;51.434;5.984;2023-12-28T00:08:17;32.88;31.31;35.23;;
69619;Laerm;57653;51.434;5.984;2023-12-28T00:08:27;33.60;31.32;35.47;;
69619;Laerm;57653;51.434;5.984;2023-12-28T00:08:37;35.49;33.17;37.12;;
69619;Laerm;57653;51.434;5.984;2023-12-28T00:08:47;35.85;33.75;37.97;;
69619;Laerm;57653;51.434;5.984;2023-12-28T00:08:58;35.23;32.49;37.73;;
69619;Laerm;57653;51.434;5.984;2023-12-28T00:09:10;34.62;32.21;45.74;;
69619;Laerm;57653;51.434;5.984;2023-12-28T00:09:20;37.06;33.50;52.62;;
69619;Laerm;57653;51.434;5.984;2023-12-28T00:09:31;36.35;33.52;49.73;;
69619;Laerm;57653;51.434;5.984;2023-12-28T00:09:41;34.11;32.56;35.87;;
69619;Laerm;57653;51.434;5.984;2023-12-28T00:09:51;35.73;33.59;37.84;;
69619;Laerm;57653;51.434;5.984;2023-12-28T00:10:02;36.10;33.87;43.61;;
69619;Laerm;57653;51.434;5.984;2023-12-28T00:10:13;39.23;32.91;53.20;;
69619;Laerm;57653;51.434;5.984;2023-12-28T00:10:23;35.11;32.94;39.89;;
69619;Laerm;57653;51.434;5.984;2023-12-28T00:10:34;35.90;33.56;45.65;;
69619;Laerm;57653;51.434;5.984;2023-12-28T00:10:44;33.76;31.99;40.63;;
69619;Laerm;57653;51.434;5.984;2023-12-28T00:10:54;34.12;32.22;37.58;;
69619;Laerm;57653;51.434;5.984;2023-12-28T00:11:05;33.57;31.61;45.36;;
69619;Laerm;57653;51.434;5.984;2023-12-28T00:11:15;36.17;32.47;43.71;;
69619;Laerm;57653;51.434;5.984;2023-12-28T00:11:25;35.83;33.87;41.02;;
69619;Laerm;57653;51.434;5.984;2023-12-28T00:11:35;35.09;33.53;39.22;;
69619;Laerm;57653;51.434;5.984;2023-12-28T00:11:46;34.96;32.67;42.59;;
69619;Laerm;57653;51.434;5.984;2023-12-28T00:11:56;35.86;33.48;50.29;;
69619;Laerm;57653;51.434;5.984;2023-12-28T00:12:06;36.01;33.24;40.16;;
69619;Laerm;57653;51.434;5.984;2023-12-28T00:12:17;35.85;33.47;40.17;;
69619;Laerm;57653;51.434;5.984;2023-12-28T00:12:27;35.29;33.04;37.58;;
69619;Laerm;57653;51.434;5.984;2023-12-28T00:12:37;36.68;34.03;48.60;;
69619;Laerm;57653;51.434;5.984;2023-12-28T00:12:47;37.36;33.63;53.87;;
69619;Laerm;57653;51.434;5.984;2023-12-28T00:12:58;35.86;34.11;42.43;;
69619;Laerm;57653;51.434;5.984;2023-12-28T00:13:08;35.68;32.97;49.93;;
69619;Laerm;57653;51.434;5.984;2023-12-28T00:13:18;34.31;31.39;42.71;;
69619;Laerm;57653;51.434;5.984;2023-12-28T00:13:28;34.46;32.25;37.95;;
69619;Laerm;57653;51.434;5.984;2023-12-28T00:13:38;35.16;32.16;39.81;;
69619;Laerm;57653;51.434;5.984;2023-12-28T00:13:49;34.58;32.22;46.72;;
69619;Laerm;57653;51.434;5.984;2023-12-28T00:13:59;35.09;33.33;43.36;;
69619;Laerm;57653;51.434;5.984;2023-12-28T00:14:09;34.39;32.42;46.20;;
69619;Laerm;57653;51.434;5.984;2023-12-28T00:14:20;33.85;32.20;38.41;;
69619;Laerm;57653;51.434;5.984;2023-12-28T00:14:30;34.21;32.33;37.11;;
69619;Laerm;57653;51.434;5.984;2023-12-28T00:14:40;35.89;32.50;50.78;;
69619;Laerm;57653;51.434;5.984;2023-12-28T00:14:50;35.38;33.62;44.06;;
69619;Laerm;57653;51.434;5.984;2023-12-28T00:15:01;35.87;32.62;50.68;;
69619;Laerm;57653;51.434;5.984;2023-12-28T00:15:11;34.56;32.85;39.98;;
69619;Laerm;57653;51.434;5.984;2023-12-28T00:15:22;34.09;31.64;46.55;;
69619;Laerm;57653;51.434;5.984;2023-12-28T00:15:32;33.66;32.11;39.21;;
69619;Laerm;57653;51.434;5.984;2023-12-28T00:15:42;35.73;33.31;44.81;;
69619;Laerm;57653;51.434;5.984;2023-12-28T00:15:52;35.44;33.43;39.20;;
69619;Laerm;57653;51.434;5.984;2023-12-28T00:16:03;35.56;33.43;42.09;;
69619;Laerm;57653;51.434;5.984;2023-12-28T00:16:14;34.83;32.36;40.29;;
69619;Laerm;57653;51.434;5.984;2023-12-28T00:16:24;33.78;31.74;39.61;;
69619;Laerm;57653;51.434;5.984;2023-12-28T00:16:34;37.16;32.35;57.00;;
69619;Laerm;57653;51.434;5.984;2023-12-28T00:16:46;36.77;32.32;52.69;;
69619;Laerm;57653;51.434;5.984;2023-12-28T00:16:57;34.61;32.73;39.46;;
69619;Laerm;57653;51.434;5.984;2023-12-28T00:17:07;35.81;33.08;52.37;;
69619;Laerm;57653;51.434;5.984;2023-12-28T00:17:17;40.98;31.82;60.72;;
69619;Laerm;57653;51.434;5.984;2023-12-28T00:17:27;34.91;32.20;45.59;;
69619;Laerm;57653;51.434;5.984;2023-12-28T00:17:38;33.94;32.27;37.96;;
69619;Laerm;57653;51.434;5.984;2023-12-28T00:17:48;34.71;32.40;43.81;;
69619;Laerm;57653;51.434;5.984;2023-12-28T00:17:58;38.38;34.51;53.33;;
69619;Laerm;57653;51.434;5.984;2023-12-28T00:18:08;34.68;32.37;38.79;;
69619;Laerm;57653;51.434;5.984;2023-12-28T00:18:18;35.52;33.62;37.31;;
69619;Laerm;57653;51.434;5.984;2023-12-28T00:18:29;35.61;33.53;38.98;;
69619;Laerm;57653;51.434;5.984;2023-12-28T00:18:39;36.25;32.62;53.99;;
69619;Laerm;57653;51.434;5.984;2023-12-28T00:18:49;35.08;33.36;42.13;;
69619;Laerm;57653;51.434;5.984;2023-12-28T00:18:59;35.39;33.02;38.63;;
69619;Laerm;57653;51.434;5.984;2023-12-28T00:19:12;35.55;33.16;45.33;;
69619;Laerm;57653;51.434;5.984;2023-12-28T00:19:22;35.53;33.20;45.96;;
69619;Laerm;57653;51.434;5.984;2023-12-28T00:19:32;35.22;33.07;44.02;;
69619;Laerm;57653;51.434;5.984;2023-12-28T00:19:42;36.26;33.35;46.44;;
69619;Laerm;57653;51.434;5.984;2023-12-28T00:19:52;34.28;32.91;37.61;;
69619;Laerm;57653;51.434;5.984;2023-12-28T00:20:03;36.38;33.47;49.63;;
69619;Laerm;57653;51.434;5.984;2023-12-28T00:20:13;35.83;33.78;37.81;;
69619;Laerm;57653;51.434;5.984;2023-12-28T00:20:23;38.69;35.94;42.24;;
69619;Laerm;57653;51.434;5.984;2023-12-28T00:20:34;40.37;37.90;44.32;;
69619;Laerm;57653;51.434;5.984;2023-12-28T00:20:44;38.55;35.55;44.42;;
69619;Laerm;57653;51.434;5.984;2023-12-28T00:20:54;36.74;33.33;49.39;;
69619;Laerm;57653;51.434;5.984;2023-12-28T00:21:04;39.57;33.95;54.77;;
69619;Laerm;57653;51.434;5.984;2023-12-28T00:21:15;41.71;34.43;60.02;;
69619;Laerm;57653;51.434;5.984;2023-12-28T00:21:25;40.42;34.99;57.27;;
69619;Laerm;57653;51.434;5.984;2023-12-28T00:21:35;37.30;34.07;47.27;;
69619;Laerm;57653;51.434;5.984;2023-12-28T00:21:45;36.75;33.53;53.60;;
69619;Laerm;57653;51.434;5.984;2023-12-28T00:21:55;39.33;35.06;56.04;;
69619;Laerm;57653;51.434;5.984;2023-12-28T00:22:06;38.33;35.37;43.83;;
69619;Laerm;57653;51.434;5.984;2023-12-28T00:22:16;40.16;36.38;44.77;;
69619;Laerm;57653;51.434;5.984;2023-12-28T00:22:26;38.15;36.25;41.06;;
69619;Laerm;57653;51.434;5.984;2023-12-28T00:22:36;38.74;35.94;52.60;;
69619;Laerm;57653;51.434;5.984;2023-12-28T00:22:49;40.42;36.44;59.14;;
69619;Laerm;57653;51.434;5.984;2023-12-28T00:22:59;40.22;36.53;46.56;;
69619;Laerm;57653;51.434;5.984;2023-12-28T00:23:10;41.10;36.07;55.30;;
69619;Laerm;57653;51.434;5.984;2023-12-28T00:23:20;42.27;35.62;59.91;;
69619;Laerm;57653;51.434;5.984;2023-12-28T00:23:30;37.74;34.78;49.45;;
69619;Laerm;57653;51.434;5.984;2023-12-28T00:23:41;36.08;33.74;46.22;;
69619;Laerm;57653;51.434;5.984;2023-12-28T00:23:51;35.82;33.61;46.27;;
69619;Laerm;57653;51.434;5.984;2023-12-28T00:24:01;35.21;33.31;45.08;;
69619;Laerm;57653;51.434;5.984;2023-12-28T00:24:12;36.41;33.69;50.54;;
69619;Laerm;57653;51.434;5.984;2023-12-28T00:24:22;37.06;34.05;48.50;;
69619;Laerm;57653;51.434;5.984;2023-12-28T00:24:32;38.81;33.14;58.23;;
69619;Laerm;57653;51.434;5.984;2023-12-28T00:24:43;35.97;33.94;46.12;;
69619;Laerm;57653;51.434;5.984;2023-12-28T00:24:53;36.01;33.29;38.23;;
69619;Laerm;57653;51.434;5.984;2023-12-28T00:25:04;36.76;34.08;50.09;;
69619;Laerm;57653;51.434;5.984;2023-12-28T00:25:14;35.21;33.26;43.46;;
69619;Laerm;57653;51.434;5.984;2023-12-28T00:25:24;34.91;32.44;45.21;;
69619;Laerm;57653;51.434;5.984;2023-12-28T00:25:34;35.73;32.72;40.19;;
69619;Laerm;57653;51.434;5.984;2023-12-28T00:25:45;35.76;33.42;42.88;;
69619;Laerm;57653;51.434;5.984;2023-12-28T00:25:55;34.89;33.32;42.12;;
69619;Laerm;57653;51.434;5.984;2023-12-28T00:26:05;34.14;32.78;39.26;;
69619;Laerm;57653;51.434;5.984;2023-12-28T00:26:15;34.88;32.14;43.30;;
69619;Laerm;57653;51.434;5.984;2023-12-28T00:26:31;33.25;31.47;42.58;;
69619;Laerm;57653;51.434;5.984;2023-12-28T00:26:41;32.97;31.56;34.85;;
69619;Laerm;57653;51.434;5.984;2023-12-28T00:26:51;34.14;32.30;39.16;;
69619;Laerm;57653;51.434;5.984;2023-12-28T00:27:02;35.47;33.33;46.02;;
69619;Laerm;57653;51.434;5.984;2023-12-28T00:27:12;37.45;33.17;41.75;;
69619;Laerm;57653;51.434;5.984;2023-12-28T00:27:22;36.23;33.26;50.43;;
69619;Laerm;57653;51.434;5.984;2023-12-28T00:27:32;36.49;33.29;48.48;;
69619;Laerm;57653;51.434;5.984;2023-12-28T00:27:47;40.65;32.89;57.75;;
69619;Laerm;57653;51.434;5.984;2023-12-28T00:27:58;37.15;33.46;52.47;;
69619;Laerm;57653;51.434;5.984;2023-12-28T00:28:08;39.36;33.99;54.73;;
69619;Laerm;57653;51.434;5.984;2023-12-28T00:28:18;39.12;35.71;42.33;;
69619;Laerm;57653;51.434;5.984;2023-12-28T00:28:28;40.12;37.59;50.39;;
69619;Laerm;57653;51.434;5.984;2023-12-28T00:28:38;40.07;37.14;44.35;;
69619;Laerm;57653;51.434;5.984;2023-12-28T00:28:49;46.76;39.19;61.15;;
69619;Laerm;57653;51.434;5.984;2023-12-28T00:28:59;41.15;37.54;56.50;;
69619;Laerm;57653;51.434;5.984;2023-12-28T00:29:09;39.44;36.35;52.80;;
69619;Laerm;57653;51.434;5.984;2023-12-28T00:29:19;39.65;36.10;54.55;;
69619;Laerm;57653;51.434;5.984;2023-12-28T00:29:30;38.52;35.87;51.68;;
69619;Laerm;57653;51.434;5.984;2023-12-28T00:29:40;36.42;34.50;45.32;;
69619;Laerm;57653;51.434;5.984;2023-12-28T00:29:51;35.85;34.27;37.45;;
69619;Laerm;57653;51.434;5.984;2023-12-28T00:30:01;36.42;33.30;52.04;;
69619;Laerm;57653;51.434;5.984;2023-12-28T00:30:11;35.10;33.11;46.18;;
69619;Laerm;57653;51.434;5.984;2023-12-28T00:30:23;34.46;32.62;40.62;;
69619;Laerm;57653;51.434;5.984;2023-12-28T00:30:33;34.17;32.68;41.50;;
69619;Laerm;57653;51.434;5.984;2023-12-28T00:30:44;35.42;33.14;49.68;;
69619;Laerm;57653;51.434;5.984;2023-12-28T00:30:54;36.39;33.36;47.88;;
69619;Laerm;57653;51.434;5.984;2023-12-28T00:31:04;37.84;34.66;52.35;;
69619;Laerm;57653;51.434;5.984;2023-12-28T00:31:14;36.62;34.60;41.27;;
69619;Laerm;57653;51.434;5.984;2023-12-28T00:31:25;36.93;34.87;42.87;;
69619;Laerm;57653;51.434;5.984;2023-12-28T00:31:35;35.51;33.79;44.17;;
69619;Laerm;57653;51.434;5.984;2023-12-28T00:31:45;35.08;33.40;40.39;;
69619;Laerm;57653;51.434;5.984;2023-12-28T00:31:55;37.15;34.23;48.42;;
69619;Laerm;57653;51.434;5.984;2023-12-28T00:32:06;35.98;33.77;44.87;;
69619;Laerm;57653;51.434;5.984;2023-12-28T00:32:16;34.21;32.68;39.92;;
69619;Laerm;57653;51.434;5.984;2023-12-28T00:32:26;34.37;32.10;37.52;;
69619;Laerm;57653;51.434;5.984;2023-12-28T00:32:36;39.50;35.61;50.63;;
69619;Laerm;57653;51.434;5.984;2023-12-28T00:32:47;39.46;34.67;52.86;;
69619;Laerm;57653;51.434;5.984;2023-12-28T00:32:57;38.48;34.29;48.43;;
69619;Laerm;57653;51.434;5.984;2023-12-28T00:33:07;42.58;34.17;60.26;;
69619;Laerm;57653;51.434;5.984;2023-12-28T00:33:17;40.49;34.37;57.36;;
69619;Laerm;57653;51.434;5.984;2023-12-28T00:33:28;40.17;33.67;57.39;;
69619;Laerm;57653;51.434;5.984;2023-12-28T00:33:38;35.52;32.29;46.14;;
69619;Laerm;57653;51.434;5.984;2023-12-28T00:33:48;37.57;32.90;55.77;;
69619;Laerm;57653;51.434;5.984;2023-12-28T00:34:00;37.37;32.53;52.51;;
69619;Laerm;57653;51.434;5.984;2023-12-28T00:34:10;43.62;35.43;57.89;;
69619;Laerm;57653;51.434;5.984;2023-12-28T00:34:21;35.98;34.23;39.35;;
69619;Laerm;57653;51.434;5.984;2023-12-28T00:34:31;35.36;33.80;45.50;;
69619;Laerm;57653;51.434;5.984;2023-12-28T00:34:41;36.61;34.21;48.42;;
69619;Laerm;57653;51.434;5.984;2023-12-28T00:34:51;36.73;34.49;44.22;;
69619;Laerm;57653;51.434;5.984;2023-12-28T00:35:02;35.69;33.26;39.73;;
69619;Laerm;57653;51.434;5.984;2023-12-28T00:35:12;39.31;34.54;55.43;;
69619;Laerm;57653;51.434;5.984;2023-12-28T00:35:22;35.67;33.15;48.23;;
69619;Laerm;57653;51.434;5.984;2023-12-28T00:35:33;36.31;34.00;39.05;;
69619;Laerm;57653;51.434;5.984;2023-12-28T00:35:43;36.13;33.75;38.68;;
69619;Laerm;57653;51.434;5.984;2023-12-28T00:35:53;38.12;35.45;48.59;;
69619;Laerm;57653;51.434;5.984;2023-12-28T00:36:03;38.42;36.49;45.77;;
69619;Laerm;57653;51.434;5.984;2023-12-28T00:36:14;40.39;37.19;49.30;;
69619;Laerm;57653;51.434;5.984;2023-12-28T00:36:24;45.54;36.70;62.66;;
69619;Laerm;57653;51.434;5.984;2023-12-28T00:36:34;42.07;36.17;56.71;;
69619;Laerm;57653;51.434;5.984;2023-12-28T00:36:44;36.66;33.96;45.52;;
69619;Laerm;57653;51.434;5.984;2023-12-28T00:36:55;36.46;34.20;46.21;;
69619;Laerm;57653;51.434;5.984;2023-12-28T00:37:05;39.27;33.62;55.76;;
69619;Laerm;57653;51.434;5.984;2023-12-28T00:37:15;38.42;34.07;57.15;;
69619;Laerm;57653;51.434;5.984;2023-12-28T00:37:25;36.85;34.93;39.18;;
69619;Laerm;57653;51.434;5.984;2023-12-28T00:37:35;35.48;34.07;43.69;;
69619;Laerm;57653;51.434;5.984;2023-12-28T00:37:46;36.90;34.50;42.48;;
69619;Laerm;57653;51.434;5.984;2023-12-28T00:37:56;34.67;33.00;38.33;;
69619;Laerm;57653;51.434;5.984;2023-12-28T00:38:06;36.04;33.18;49.19;;
69619;Laerm;57653;51.434;5.984;2023-12-28T00:38:16;35.27;33.26;47.25;;
69619;Laerm;57653;51.434;5.984;2023-12-28T00:38:27;34.11;32.30;37.05;;
69619;Laerm;57653;51.434;5.984;2023-12-28T00:38:37;34.02;32.27;38.21;;
69619;Laerm;57653;51.434;5.984;2023-12-28T00:38:47;34.99;33.66;36.71;;
69619;Laerm;57653;51.434;5.984;2023-12-28T00:38:57;35.94;33.71;46.40;;
69619;Laerm;57653;51.434;5.984;2023-12-28T00:39:08;36.58;34.94;41.35;;
69619;Laerm;57653;51.434;5.984;2023-12-28T00:39:18;36.61;33.86;40.19;;
69619;Laerm;57653;51.434;5.984;2023-12-28T00:39:28;36.66;33.80;52.00;;
69619;Laerm;57653;51.434;5.984;2023-12-28T00:39:39;36.25;32.92;51.24;;
69619;Laerm;57653;51.434;5.984;2023-12-28T00:39:50;36.56;34.57;45.38;;
69619;Laerm;57653;51.434;5.984;2023-12-28T00:40:01;35.38;33.52;38.37;;
69619;Laerm;57653;51.434;5.984;2023-12-28T00:40:11;36.51;33.55;52.50;;
69619;Laerm;57653;51.434;5.984;2023-12-28T00:40:21;38.34;34.38;52.42;;
69619;Laerm;57653;51.434;5.984;2023-12-28T00:40:32;36.51;33.50;47.58;;
69619;Laerm;57653;51.434;5.984;2023-12-28T00:40:42;41.60;33.07;60.96;;
69619;Laerm;57653;51.434;5.984;2023-12-28T00:40:52;35.57;33.09;43.94;;
69619;Laerm;57653;51.434;5.984;2023-12-28T00:41:02;35.60;33.75;39.40;;
69619;Laerm;57653;51.434;5.984;2023-12-28T00:41:13;35.15;32.97;42.96;;
69619;Laerm;57653;51.434;5.984;2023-12-28T00:41:23;34.63;33.35;37.63;;
69619;Laerm;57653;51.434;5.984;2023-12-28T00:41:33;34.68;33.07;36.28;;
69619;Laerm;57653;51.434;5.984;2023-12-28T00:41:44;35.64;33.34;47.63;;
69619;Laerm;57653;51.434;5.984;2023-12-28T00:41:54;35.66;33.38;47.14;;
69619;Laerm;57653;51.434;5.984;2023-12-28T00:42:04;38.75;32.87;59.32;;
69619;Laerm;57653;51.434;5.984;2023-12-28T00:42:14;33.86;32.49;39.80;;
69619;Laerm;57653;51.434;5.984;2023-12-28T00:42:25;34.77;32.82;45.36;;
69619;Laerm;57653;51.434;5.984;2023-12-28T00:42:35;35.21;33.26;37.58;;
69619;Laerm;57653;51.434;5.984;2023-12-28T00:42:45;38.15;36.13;47.25;;
69619;Laerm;57653;51.434;5.984;2023-12-28T00:42:55;37.37;35.10;39.94;;
69619;Laerm;57653;51.434;5.984;2023-12-28T00:43:06;39.53;34.86;55.73;;
69619;Laerm;57653;51.434;5.984;2023-12-28T00:43:17;43.83;37.15;59.72;;
69619;Laerm;57653;51.434;5.984;2023-12-28T00:43:27;39.05;35.97;50.06;;
69619;Laerm;57653;51.434;5.984;2023-12-28T00:43:37;40.93;33.80;58.75;;
69619;Laerm;57653;51.434;5.984;2023-12-28T00:43:47;37.69;34.98;49.16;;
69619;Laerm;57653;51.434;5.984;2023-12-28T00:43:58;44.79;35.13;63.84;;
69619;Laerm;57653;51.434;5.984;2023-12-28T00:44:08;39.39;35.01;52.65;;
69619;Laerm;57653;51.434;5.984;2023-12-28T00:44:19;39.28;33.02;54.87;;
69619;Laerm;57653;51.434;5.984;2023-12-28T00:44:29;37.58;34.35;51.94;;
69619;Laerm;57653;51.434;5.984;2023-12-28T00:44:40;37.00;34.42;45.89;;
69619;Laerm;57653;51.434;5.984;2023-12-28T00:44:51;37.00;34.53;42.85;;
69619;Laerm;57653;51.434;5.984;2023-12-28T00:45:02;38.17;35.94;41.09;;
69619;Laerm;57653;51.434;5.984;2023-12-28T00:45:12;36.89;34.57;44.33;;
69619;Laerm;57653;51.434;5.984;2023-12-28T00:45:23;35.97;33.67;46.11;;
69619;Laerm;57653;51.434;5.984;2023-12-28T00:45:33;36.30;33.74;46.14;;
69619;Laerm;57653;51.434;5.984;2023-12-28T00:45:43;34.94;32.90;41.81;;
69619;Laerm;57653;51.434;5.984;2023-12-28T00:45:53;35.11;33.44;41.02;;
69619;Laerm;57653;51.434;5.984;2023-12-28T00:46:03;36.63;33.32;52.34;;
69619;Laerm;57653;51.434;5.984;2023-12-28T00:46:14;35.87;33.04;42.87;;
69619;Laerm;57653;51.434;5.984;2023-12-28T00:46:24;36.01;32.74;44.38;;
69619;Laerm;57653;51.434;5.984;2023-12-28T00:46:35;36.59;34.20;39.87;;
69619;Laerm;57653;51.434;5.984;2023-12-28T00:46:45;37.24;34.92;39.90;;
69619;Laerm;57653;51.434;5.984;2023-12-28T00:46:55;36.87;32.98;51.89;;
69619;Laerm;57653;51.434;5.984;2023-12-28T00:47:05;36.09;33.38;46.79;;
69619;Laerm;57653;51.434;5.984;2023-12-28T00:47:16;36.43;34.27;41.58;;
69619;Laerm;57653;51.434;5.984;2023-12-28T00:47:26;37.01;35.43;39.97;;
69619;Laerm;57653;51.434;5.984;2023-12-28T00:47:37;41.56;35.97;58.02;;
69619;Laerm;57653;51.434;5.984;2023-12-28T00:47:47;40.86;36.14;56.71;;
69619;Laerm;57653;51.434;5.984;2023-12-28T00:47:57;41.52;35.71;58.51;;
69619;Laerm;57653;51.434;5.984;2023-12-28T00:48:07;40.98;36.15;55.47;;
69619;Laerm;57653;51.434;5.984;2023-12-28T00:48:17;38.58;36.34;42.77;;
69619;Laerm;57653;51.434;5.984;2023-12-28T00:48:28;37.04;34.42;44.64;;
69619;Laerm;57653;51.434;5.984;2023-12-28T00:48:38;38.89;35.00;57.93;;
69619;Laerm;57653;51.434;5.984;2023-12-28T00:48:48;37.53;35.64;45.58;;
69619;Laerm;57653;51.434;5.984;2023-12-28T00:48:58;38.75;36.91;41.34;;
69619;Laerm;57653;51.434;5.984;2023-12-28T00:49:09;37.58;35.19;47.00;;
69619;Laerm;57653;51.434;5.984;2023-12-28T00:49:19;41.87;34.41;56.81;;
69619;Laerm;57653;51.434;5.984;2023-12-28T00:49:29;43.34;39.07;60.19;;
69619;Laerm;57653;51.434;5.984;2023-12-28T00:49:39;40.84;37.63;54.41;;
69619;Laerm;57653;51.434;5.984;2023-12-28T00:49:50;39.95;37.13;52.05;;
69619;Laerm;57653;51.434;5.984;2023-12-28T00:50:00;46.72;34.49;63.30;;
69619;Laerm;57653;51.434;5.984;2023-12-28T00:50:10;39.81;33.92;55.19;;
69619;Laerm;57653;51.434;5.984;2023-12-28T00:50:25;38.09;36.28;48.39;;
69619;Laerm;57653;51.434;5.984;2023-12-28T00:50:37;37.85;35.44;47.69;;
69619;Laerm;57653;51.434;5.984;2023-12-28T00:50:47;41.37;37.31;57.13;;
69619;Laerm;57653;51.434;5.984;2023-12-28T00:50:57;43.83;37.44;62.05;;
69619;Laerm;57653;51.434;5.984;2023-12-28T00:51:09;43.39;36.39;61.01;;
69619;Laerm;57653;51.434;5.984;2023-12-28T00:51:19;41.12;36.33;57.05;;
69619;Laerm;57653;51.434;5.984;2023-12-28T00:51:30;39.36;36.72;53.81;;
69619;Laerm;57653;51.434;5.984;2023-12-28T00:51:40;39.23;36.23;56.20;;
69619;Laerm;57653;51.434;5.984;2023-12-28T00:51:50;37.81;35.84;41.01;;
69619;Laerm;57653;51.434;5.984;2023-12-28T00:52:00;38.23;34.71;44.83;;
69619;Laerm;57653;51.434;5.984;2023-12-28T00:52:11;37.66;35.52;45.40;;
69619;Laerm;57653;51.434;5.984;2023-12-28T00:52:21;38.65;36.20;49.66;;
69619;Laerm;57653;51.434;5.984;2023-12-28T00:52:31;37.44;35.52;47.46;;
69619;Laerm;57653;51.434;5.984;2023-12-28T00:52:41;42.77;33.88;65.77;;
69619;Laerm;57653;51.434;5.984;2023-12-28T00:52:52;37.24;34.47;51.42;;
69619;Laerm;57653;51.434;5.984;2023-12-28T00:53:02;37.39;35.16;41.82;;
69619;Laerm;57653;51.434;5.984;2023-12-28T00:53:12;37.67;34.73;43.20;;
69619;Laerm;57653;51.434;5.984;2023-12-28T00:53:22;38.44;35.33;41.05;;
69619;Laerm;57653;51.434;5.984;2023-12-28T00:53:33;38.36;35.75;45.42;;
69619;Laerm;57653;51.434;5.984;2023-12-28T00:53:43;38.76;35.78;41.34;;
69619;Laerm;57653;51.434;5.984;2023-12-28T00:53:53;38.43;36.62;40.10;;
69619;Laerm;57653;51.434;5.984;2023-12-28T00:54:03;39.55;37.62;43.29;;
69619;Laerm;57653;51.434;5.984;2023-12-28T00:54:14;38.99;35.96;48.11;;
69619;Laerm;57653;51.434;5.984;2023-12-28T00:54:24;37.41;34.48;50.61;;
69619;Laerm;57653;51.434;5.984;2023-12-28T00:54:35;42.11;37.84;55.46;;
69619;Laerm;57653;51.434;5.984;2023-12-28T00:54:46;40.46;38.06;46.79;;
69619;Laerm;57653;51.434;5.984;2023-12-28T00:54:57;38.40;36.29;43.35;;
69619;Laerm;57653;51.434;5.984;2023-12-28T00:55:07;37.84;35.40;54.53;;
69619;Laerm;57653;51.434;5.984;2023-12-28T00:55:17;38.52;35.69;52.05;;
69619;Laerm;57653;51.434;5.984;2023-12-28T00:55:28;37.07;35.20;40.21;;
69619;Laerm;57653;51.434;5.984;2023-12-28T00:55:38;36.90;34.99;40.95;;
69619;Laerm;57653;51.434;5.984;2023-12-28T00:55:48;40.64;35.82;50.99;;
69619;Laerm;57653;51.434;5.984;2023-12-28T00:55:58;41.75;38.08;51.92;;
69619;Laerm;57653;51.434;5.984;2023-12-28T00:56:09;40.54;36.50;50.79;;
69619;Laerm;57653;51.434;5.984;2023-12-28T00:56:19;39.16;36.07;54.65;;
69619;Laerm;57653;51.434;5.984;2023-12-28T00:56:31;37.86;35.72;42.67;;
69619;Laerm;57653;51.434;5.984;2023-12-28T00:56:41;39.17;36.94;47.22;;
69619;Laerm;57653;51.434;5.984;2023-12-28T00:56:51;37.97;35.45;50.53;;
69619;Laerm;57653;51.434;5.984;2023-12-28T00:57:02;38.06;35.54;45.40;;
69619;Laerm;57653;51.434;5.984;2023-12-28T00:57:13;37.39;34.94;47.10;;
69619;Laerm;57653;51.434;5.984;2023-12-28T00:57:23;38.68;36.37;44.64;;
69619;Laerm;57653;51.434;5.984;2023-12-28T00:57:33;41.16;37.06;43.72;;
69619;Laerm;57653;51.434;5.984;2023-12-28T00:57:44;40.98;38.44;47.43;;
69619;Laerm;57653;51.434;5.984;2023-12-28T00:57:54;43.07;37.63;61.95;;
69619;Laerm;57653;51.434;5.984;2023-12-28T00:58:04;44.82;36.71;64.74;;
69619;Laerm;57653;51.434;5.984;2023-12-28T00:58:14;44.44;38.99;61.83;;